Time;durP1;ratioP1;P1;durP2;ratioP2;P2;SDS_P1;SDS_P2;PMS_P1;PMS_P2;Temp;Humidity;BMP_temperature;BMP_pressure;BME280_temperature;BME280_humidity;BME280_pressure;Samples;Min_cycle;Max_cycle;Signal;HPM_P1;HPM_P2
2021/08/28 00:01:52;;;;;;;20.87;10.70;;;;;;;;;;5036074;28;20065;-63
2021/08/28 00:04:19;;;;;;;21.27;11.23;;;;;;;;;;5032872;28;20021;-63
2021/08/28 00:06:46;;;;;;;27.07;12.17;;;;;;;;;;5028378;28;20091;-63
2021/08/28 00:09:13;;;;;;;26.20;13.27;;;;;;;;;;5028164;28;20042;-63
2021/08/28 00:11:40;;;;;;;20.53;11.37;;;;;;;;;;5027438;28;20033;-63
2021/08/28 00:14:07;;;;;;;20.80;11.27;;;;;;;;;;5028270;28;20026;-63
2021/08/28 00:16:33;;;;;;;28.33;12.57;;;;;;;;;;5046277;28;20032;-63
2021/08/28 00:19:00;;;;;;;20.53;10.67;;;;;;;;;;5052653;28;20086;-63
2021/08/28 00:21:27;;;;;;;24.30;11.20;;;;;;;;;;5050698;28;20032;-63
2021/08/28 00:23:54;;;;;;;23.30;10.20;;;;;;;;;;5034235;28;20079;-63
2021/08/28 00:26:20;;;;;;;25.13;11.00;;;;;;;;;;5032406;28;20037;-63
2021/08/28 00:28:47;;;;;;;16.13;8.53;;;;;;;;;;5032149;28;20100;-63
2021/08/28 00:31:14;;;;;;;18.17;7.97;;;;;;;;;;5041911;28;20026;-63
2021/08/28 00:33:41;;;;;;;22.73;8.30;;;;;;;;;;5027307;28;20033;-63
2021/08/28 00:36:07;;;;;;;22.97;9.00;;;;;;;;;;5027578;28;20061;-63
2021/08/28 00:38:34;;;;;;;14.60;7.67;;;;;;;;;;5028910;28;20032;-63
2021/08/28 00:41:01;;;;;;;16.57;8.63;;;;;;;;;;5032059;28;20053;-63
2021/08/28 00:43:29;;;;;;;14.50;8.40;;;;;;;;;;5045974;28;20483;-63
2021/08/28 00:45:56;;;;;;;17.37;8.40;;;;;;;;;;5052125;28;20033;-63
2021/08/28 00:48:22;;;;;;;18.80;8.30;;;;;;;;;;5033654;28;20079;-63
2021/08/28 00:50:49;;;;;;;12.43;8.10;;;;;;;;;;5030865;28;20110;-63
2021/08/28 00:53:17;;;;;;;14.43;8.30;;;;;;;;;;5027001;28;20029;-63
2021/08/28 00:55:48;;;;;;;17.70;8.70;;;;;;;;;;5027469;28;20036;-63
2021/08/28 00:58:15;;;;;;;14.07;7.30;;;;;;;;;;5027251;28;20053;-63
2021/08/28 01:00:42;;;;;;;17.50;9.20;;;;;;;;;;5028661;28;20029;-63
2021/08/28 01:03:09;;;;;;;20.23;9.13;;;;;;;;;;5049719;28;20025;-63
2021/08/28 01:05:41;;;;;;;18.63;8.80;;;;;;;;;;5033105;28;20053;-63
2021/08/28 01:08:11;;;;;;;10.50;7.53;;;;;;;;;;5031564;28;20030;-63
2021/08/28 01:10:40;;;;;;;11.53;7.70;;;;;;;;;;5031513;28;20028;-65
2021/08/28 01:13:13;;;;;;;21.17;11.13;;;;;;;;;;5031144;28;20084;-63
2021/08/28 01:15:40;;;;;;;18.57;9.70;;;;;;;;;;5026967;28;20040;-63
2021/08/28 01:18:10;;;;;;;18.83;9.60;;;;;;;;;;5026700;28;20025;-63
2021/08/28 01:20:40;;;;;;;17.73;9.10;;;;;;;;;;5026907;28;20056;-63
2021/08/28 01:23:08;;;;;;;18.43;9.13;;;;;;;;;;5036755;28;20032;-63
2021/08/28 01:25:35;;;;;;;25.30;8.27;;;;;;;;;;5051154;28;20364;-63
2021/08/28 01:28:21;;;;;;;13.83;6.97;;;;;;;;;;5051396;28;20563;-63
2021/08/28 01:30:48;;;;;;;13.63;6.90;;;;;;;;;;5051149;28;20067;-63
2021/08/28 01:33:16;;;;;;;18.13;8.60;;;;;;;;;;5041921;28;20087;-63
2021/08/28 01:35:44;;;;;;;17.37;9.20;;;;;;;;;;5051583;28;20020;-63
2021/08/28 01:38:11;;;;;;;14.83;9.10;;;;;;;;;;5046796;28;20055;-63
2021/08/28 01:40:39;;;;;;;20.30;10.03;;;;;;;;;;5046724;28;20025;-63
2021/08/28 01:43:07;;;;;;;14.83;8.73;;;;;;;;;;5036637;28;20033;-63
2021/08/28 01:45:34;;;;;;;19.13;9.13;;;;;;;;;;5026643;28;20044;-63
2021/08/28 01:48:02;;;;;;;15.20;8.00;;;;;;;;;;5029983;28;20108;-63
2021/08/28 01:50:29;;;;;;;14.07;8.10;;;;;;;;;;5042832;28;20033;-63
2021/08/28 01:52:56;;;;;;;11.67;7.23;;;;;;;;;;5043676;28;20076;-64
2021/08/28 01:55:22;;;;;;;16.63;7.23;;;;;;;;;;5031418;28;20079;-63
2021/08/28 01:57:49;;;;;;;14.07;7.93;;;;;;;;;;5032441;28;20034;-64
2021/08/28 02:00:16;;;;;;;16.73;7.90;;;;;;;;;;5027819;28;20030;-63
2021/08/28 02:02:43;;;;;;;14.37;7.90;;;;;;;;;;5037997;28;20519;-63
2021/08/28 02:05:12;;;;;;;14.27;8.07;;;;;;;;;;5032657;28;20494;-64
2021/08/28 02:07:50;;;;;;;18.30;7.40;;;;;;;;;;5038385;28;20037;-63
2021/08/28 02:10:37;;;;;;;12.03;7.30;;;;;;;;;;5009745;28;20505;-64
2021/08/28 02:13:07;;;;;;;12.23;6.80;;;;;;;;;;5011643;28;20026;-63
2021/08/28 02:15:37;;;;;;;11.33;6.57;;;;;;;;;;5011710;28;20488;-63
2021/08/28 02:18:10;;;;;;;13.90;7.73;;;;;;;;;;5029260;28;20210;-63
2021/08/28 02:20:40;;;;;;;19.20;7.23;;;;;;;;;;5034901;28;20509;-64
2021/08/28 02:23:09;;;;;;;17.33;7.30;;;;;;;;;;5030813;28;20033;-63
2021/08/28 02:25:39;;;;;;;36.70;19.23;;;;;;;;;;5030147;28;20021;-63
2021/08/28 02:28:07;;;;;;;65.23;30.47;;;;;;;;;;5044211;28;20479;-63
2021/08/28 02:30:35;;;;;;;23.37;14.57;;;;;;;;;;5049901;28;20025;-64
2021/08/28 02:33:03;;;;;;;16.87;9.57;;;;;;;;;;5050895;28;20025;-64
2021/08/28 02:35:31;;;;;;;14.63;8.13;;;;;;;;;;5051842;28;20033;-64
2021/08/28 02:37:58;;;;;;;11.07;7.23;;;;;;;;;;5047683;28;20103;-64
2021/08/28 02:40:26;;;;;;;14.53;7.87;;;;;;;;;;5054250;28;20033;-64
2021/08/28 02:42:53;;;;;;;16.20;7.63;;;;;;;;;;5041370;28;20022;-64
2021/08/28 02:45:22;;;;;;;11.60;6.93;;;;;;;;;;5031763;28;20025;-64
2021/08/28 02:47:49;;;;;;;11.33;6.57;;;;;;;;;;5029652;28;20034;-64
2021/08/28 02:50:16;;;;;;;14.73;7.90;;;;;;;;;;5029928;28;20111;-64
2021/08/28 02:52:47;;;;;;;13.73;6.93;;;;;;;;;;5037855;28;20087;-64
2021/08/28 02:55:14;;;;;;;14.53;7.50;;;;;;;;;;5042452;28;20017;-64
2021/08/28 02:57:43;;;;;;;15.17;7.77;;;;;;;;;;5034282;28;20037;-64
2021/08/28 03:00:10;;;;;;;15.80;7.87;;;;;;;;;;5033835;28;20472;-64
2021/08/28 03:02:38;;;;;;;15.90;7.60;;;;;;;;;;5035059;28;20041;-64
2021/08/28 03:05:05;;;;;;;14.87;7.33;;;;;;;;;;5033915;28;20029;-64
2021/08/28 03:07:34;;;;;;;12.13;7.63;;;;;;;;;;5046988;28;20184;-64
2021/08/28 03:10:01;;;;;;;18.07;7.20;;;;;;;;;;5029019;28;20038;-64
2021/08/28 03:12:28;;;;;;;14.83;7.10;;;;;;;;;;5029025;28;20033;-64
2021/08/28 03:14:55;;;;;;;12.80;7.20;;;;;;;;;;5028906;28;20036;-64
2021/08/28 03:17:23;;;;;;;18.40;8.43;;;;;;;;;;5029404;28;20057;-64
2021/08/28 03:19:51;;;;;;;19.10;9.00;;;;;;;;;;5033779;28;20402;-64
2021/08/28 03:22:21;;;;;;;11.40;7.43;;;;;;;;;;5033333;28;20071;-64
2021/08/28 03:24:52;;;;;;;15.70;8.33;;;;;;;;;;5033491;28;20030;-64
2021/08/28 03:27:20;;;;;;;17.83;8.97;;;;;;;;;;5033698;28;20033;-64
2021/08/28 03:29:47;;;;;;;15.73;9.50;;;;;;;;;;5031781;28;20490;-64
2021/08/28 03:32:16;;;;;;;16.83;8.43;;;;;;;;;;5034638;28;20040;-64
2021/08/28 03:34:43;;;;;;;16.87;8.17;;;;;;;;;;5048784;28;20086;-64
2021/08/28 03:37:10;;;;;;;16.60;7.23;;;;;;;;;;5048228;28;20021;-64
2021/08/28 03:39:40;;;;;;;12.40;6.80;;;;;;;;;;5038556;28;20033;-64
2021/08/28 03:42:07;;;;;;;21.30;7.33;;;;;;;;;;5048139;28;20037;-64
2021/08/28 03:44:38;;;;;;;11.37;7.67;;;;;;;;;;5034434;28;20550;-64
2021/08/28 03:47:05;;;;;;;16.07;7.40;;;;;;;;;;5032830;28;20365;-64
2021/08/28 03:49:31;;;;;;;10.40;6.90;;;;;;;;;;5033177;28;20032;-64
2021/08/28 03:51:58;;;;;;;18.57;7.90;;;;;;;;;;5033169;28;20779;-64
2021/08/28 03:54:25;;;;;;;10.47;5.73;;;;;;;;;;5027710;28;20400;-64
2021/08/28 03:56:52;;;;;;;9.40;5.33;;;;;;;;;;5028320;28;20579;-64
2021/08/28 03:59:18;;;;;;;7.77;4.10;;;;;;;;;;5028503;28;20384;-64
2021/08/28 04:01:47;;;;;;;10.30;4.27;;;;;;;;;;5032777;28;20417;-64
2021/08/28 04:04:14;;;;;;;6.13;3.50;;;;;;;;;;5037080;28;20026;-64
2021/08/28 04:06:41;;;;;;;7.17;3.67;;;;;;;;;;5032457;28;20025;-64
2021/08/28 04:09:08;;;;;;;5.57;2.93;;;;;;;;;;5043916;28;20040;-64
2021/08/28 04:11:34;;;;;;;8.20;3.03;;;;;;;;;;5033938;28;20030;-64
2021/08/28 04:14:01;;;;;;;9.00;5.70;;;;;;;;;;5044862;28;20357;-64
2021/08/28 04:16:28;;;;;;;9.27;4.50;;;;;;;;;;5047252;28;20349;-64
2021/08/28 04:18:55;;;;;;;5.70;3.97;;;;;;;;;;5048061;28;20021;-64
2021/08/28 04:21:21;;;;;;;8.97;4.80;;;;;;;;;;5047422;28;20028;-64
2021/08/28 04:23:48;;;;;;;8.83;4.00;;;;;;;;;;5037479;28;20108;-63
2021/08/28 04:26:15;;;;;;;7.20;3.93;;;;;;;;;;5031493;28;20036;-64
2021/08/28 04:28:42;;;;;;;5.93;3.47;;;;;;;;;;5032107;28;20045;-64
2021/08/28 04:31:08;;;;;;;8.47;3.10;;;;;;;;;;5032184;28;20057;-64
2021/08/28 04:33:35;;;;;;;8.33;2.57;;;;;;;;;;5029349;28;20032;-64
2021/08/28 04:36:02;;;;;;;5.23;2.10;;;;;;;;;;5052071;28;20100;-64
2021/08/28 04:38:29;;;;;;;5.33;1.80;;;;;;;;;;5046367;28;20069;-63
2021/08/28 04:40:55;;;;;;;6.37;2.57;;;;;;;;;;5032748;28;20109;-63
2021/08/28 04:43:22;;;;;;;2.70;1.60;;;;;;;;;;5033797;28;20040;-63
2021/08/28 04:45:49;;;;;;;3.70;2.10;;;;;;;;;;5047201;28;20108;-64
2021/08/28 04:48:16;;;;;;;3.97;1.90;;;;;;;;;;5048514;28;20475;-64
2021/08/28 04:50:42;;;;;;;4.37;1.77;;;;;;;;;;5052098;28;20031;-63
2021/08/28 04:53:09;;;;;;;3.37;1.60;;;;;;;;;;5047169;28;20087;-63
2021/08/28 04:55:36;;;;;;;5.40;1.90;;;;;;;;;;5031845;28;20040;-63
2021/08/28 04:58:03;;;;;;;3.83;1.70;;;;;;;;;;5047288;28;20033;-63
2021/08/28 05:00:31;;;;;;;3.03;1.63;;;;;;;;;;5050077;28;20032;-63
2021/08/28 05:02:58;;;;;;;3.63;1.80;;;;;;;;;;5034292;28;20128;-64
2021/08/28 05:05:25;;;;;;;3.20;1.43;;;;;;;;;;5030318;28;20033;-63
2021/08/28 05:07:51;;;;;;;4.67;1.43;;;;;;;;;;5026816;28;20025;-64
2021/08/28 05:10:18;;;;;;;5.10;1.20;;;;;;;;;;5039653;28;20029;-63
2021/08/28 05:12:45;;;;;;;2.60;1.17;;;;;;;;;;5046815;28;20072;-64
2021/08/28 05:15:12;;;;;;;3.87;1.10;;;;;;;;;;5051834;28;20144;-63
2021/08/28 05:17:38;;;;;;;3.70;1.17;;;;;;;;;;5051735;28;20017;-64
2021/08/28 05:20:05;;;;;;;7.03;1.43;;;;;;;;;;5051535;28;20037;-63
2021/08/28 05:22:32;;;;;;;1.70;0.70;;;;;;;;;;5051291;28;20024;-64
2021/08/28 05:24:59;;;;;;;2.90;1.00;;;;;;;;;;5028429;28;20103;-63
2021/08/28 05:27:26;;;;;;;2.67;1.10;;;;;;;;;;5026790;28;20040;-63
2021/08/28 05:29:53;;;;;;;4.47;1.10;;;;;;;;;;5040786;28;20044;-63
2021/08/28 05:32:19;;;;;;;4.13;1.30;;;;;;;;;;5046538;28;20480;-63
2021/08/28 05:34:47;;;;;;;6.87;1.30;;;;;;;;;;5034323;28;20476;-63
2021/08/28 05:37:14;;;;;;;3.80;1.40;;;;;;;;;;5031506;28;20551;-63
2021/08/28 05:39:41;;;;;;;7.63;1.43;;;;;;;;;;5031685;28;20030;-63
2021/08/28 05:42:07;;;;;;;4.43;1.30;;;;;;;;;;5040186;28;20029;-63
2021/08/28 05:44:34;;;;;;;5.80;1.07;;;;;;;;;;5039661;28;20150;-63
2021/08/28 05:47:01;;;;;;;1.67;0.80;;;;;;;;;;5047622;28;20036;-63
2021/08/28 05:49:28;;;;;;;5.63;1.03;;;;;;;;;;5046756;28;20725;-63
2021/08/28 05:51:54;;;;;;;9.10;2.07;;;;;;;;;;5044643;28;20025;-63
2021/08/28 05:54:21;;;;;;;9.27;1.47;;;;;;;;;;5037602;28;20033;-63
2021/08/28 05:56:48;;;;;;;2.27;1.20;;;;;;;;;;5033166;28;20444;-64
2021/08/28 05:59:15;;;;;;;4.47;1.13;;;;;;;;;;5035670;28;20071;-63
2021/08/28 06:01:42;;;;;;;6.80;1.40;;;;;;;;;;5047548;28;20032;-63
2021/08/28 06:04:08;;;;;;;1.70;1.17;;;;;;;;;;5044434;28;20036;-63
2021/08/28 06:06:35;;;;;;;3.70;1.00;;;;;;;;;;5038657;28;20036;-63
2021/08/28 06:09:03;;;;;;;3.33;1.40;;;;;;;;;;5052867;28;20024;-63
2021/08/28 06:11:29;;;;;;;11.07;1.60;;;;;;;;;;5049605;28;20025;-65
2021/08/28 06:13:56;;;;;;;5.30;1.40;;;;;;;;;;5038301;28;20040;-63
2021/08/28 06:16:23;;;;;;;3.97;1.10;;;;;;;;;;5048283;28;20025;-63
2021/08/28 06:18:50;;;;;;;3.47;1.17;;;;;;;;;;5031674;28;20374;-64
2021/08/28 06:21:16;;;;;;;3.60;1.43;;;;;;;;;;5035847;28;20124;-63
2021/08/28 06:23:43;;;;;;;1.50;1.13;;;;;;;;;;5034874;28;20040;-64
2021/08/28 06:26:10;;;;;;;3.97;1.17;;;;;;;;;;5034666;28;20030;-63
2021/08/28 06:28:37;;;;;;;4.17;1.60;;;;;;;;;;5033996;28;20017;-63
2021/08/28 06:31:04;;;;;;;4.33;2.10;;;;;;;;;;5033602;28;20064;-63
2021/08/28 06:33:30;;;;;;;3.73;1.80;;;;;;;;;;5044220;28;20029;-63
2021/08/28 06:35:57;;;;;;;4.43;1.27;;;;;;;;;;5029921;28;20025;-63
2021/08/28 06:38:24;;;;;;;5.40;1.30;;;;;;;;;;5029744;28;20092;-67
2021/08/28 06:40:51;;;;;;;7.93;1.20;;;;;;;;;;5029996;28;20025;-63
2021/08/28 06:43:18;;;;;;;2.13;1.20;;;;;;;;;;5036801;28;20441;-63
2021/08/28 06:45:45;;;;;;;1.43;0.93;;;;;;;;;;5054027;28;20092;-63
2021/08/28 06:48:11;;;;;;;12.10;2.30;;;;;;;;;;5045490;28;20072;-63
2021/08/28 06:50:38;;;;;;;9.07;1.13;;;;;;;;;;5034613;28;20083;-63
2021/08/28 06:53:05;;;;;;;4.70;1.30;;;;;;;;;;5034658;28;20053;-63
2021/08/28 06:55:32;;;;;;;4.83;1.10;;;;;;;;;;5037660;28;20083;-63
2021/08/28 06:57:58;;;;;;;2.20;0.90;;;;;;;;;;5029294;28;20432;-63
2021/08/28 07:00:25;;;;;;;4.10;1.00;;;;;;;;;;5029335;28;20029;-63
2021/08/28 07:02:52;;;;;;;2.03;1.00;;;;;;;;;;5029044;28;20107;-63
2021/08/28 07:05:19;;;;;;;8.33;1.27;;;;;;;;;;5034301;28;20033;-63
2021/08/28 07:07:47;;;;;;;2.07;0.80;;;;;;;;;;5040976;28;20033;-63
2021/08/28 07:10:14;;;;;;;5.47;1.30;;;;;;;;;;5034109;28;20044;-63
2021/08/28 07:12:41;;;;;;;4.23;0.97;;;;;;;;;;5033868;28;20029;-63
2021/08/28 07:15:08;;;;;;;6.40;2.40;;;;;;;;;;5050222;28;20025;-63
2021/08/28 07:17:35;;;;;;;4.40;1.20;;;;;;;;;;5050379;28;20025;-63
2021/08/28 07:20:02;;;;;;;2.00;0.70;;;;;;;;;;5040385;28;20095;-65
2021/08/28 07:22:28;;;;;;;2.60;0.50;;;;;;;;;;5029129;28;20018;-62
2021/08/28 07:24:55;;;;;;;6.67;1.07;;;;;;;;;;5042088;28;20035;-63
2021/08/28 07:27:25;;;;;;;4.17;0.83;;;;;;;;;;5051031;28;20037;-63
2021/08/28 07:29:52;;;;;;;2.30;0.80;;;;;;;;;;5051855;28;20083;-63
2021/08/28 07:32:19;;;;;;;4.50;1.00;;;;;;;;;;5053317;28;20025;-63
2021/08/28 07:34:47;;;;;;;2.87;0.70;;;;;;;;;;5045587;28;20372;-63
2021/08/28 07:37:14;;;;;;;1.70;0.80;;;;;;;;;;5051204;28;20052;-65
2021/08/28 07:39:40;;;;;;;3.80;0.90;;;;;;;;;;5050885;28;20104;-63
2021/08/28 07:42:07;;;;;;;5.93;1.20;;;;;;;;;;5047997;28;20028;-63
2021/08/28 07:44:34;;;;;;;1.90;0.90;;;;;;;;;;5042378;28;20064;-63
2021/08/28 07:47:01;;;;;;;2.13;0.70;;;;;;;;;;5028737;28;20040;-63
2021/08/28 07:49:28;;;;;;;1.70;0.70;;;;;;;;;;5029985;28;20028;-63
2021/08/28 07:51:54;;;;;;;4.23;1.30;;;;;;;;;;5040167;28;20090;-63
2021/08/28 07:54:21;;;;;;;2.57;0.80;;;;;;;;;;5048896;28;20025;-63
2021/08/28 07:56:48;;;;;;;4.73;0.70;;;;;;;;;;5033028;28;20087;-63
2021/08/28 07:59:15;;;;;;;3.10;0.90;;;;;;;;;;5033273;28;20025;-63
2021/08/28 08:01:42;;;;;;;1.83;0.70;;;;;;;;;;5035435;28;20025;-63
2021/08/28 08:04:09;;;;;;;5.80;1.10;;;;;;;;;;5042741;28;20025;-63
2021/08/28 08:06:35;;;;;;;3.73;0.70;;;;;;;;;;5044799;28;20040;-63
2021/08/28 08:09:03;;;;;;;10.03;1.20;;;;;;;;;;5047257;28;20033;-63
2021/08/28 08:11:29;;;;;;;2.07;0.80;;;;;;;;;;5048769;28;20361;-63
2021/08/28 08:13:56;;;;;;;4.23;0.70;;;;;;;;;;5052438;28;20025;-63
2021/08/28 08:16:23;;;;;;;3.70;0.70;;;;;;;;;;5051038;28;20108;-63
2021/08/28 08:18:50;;;;;;;0.83;0.53;;;;;;;;;;5052373;28;20021;-63
2021/08/28 08:21:17;;;;;;;1.73;0.70;;;;;;;;;;5051281;28;20495;-63
2021/08/28 08:23:43;;;;;;;3.63;0.80;;;;;;;;;;5031961;28;20036;-63
2021/08/28 08:26:10;;;;;;;5.67;1.03;;;;;;;;;;5027464;28;20041;-63
2021/08/28 08:28:37;;;;;;;3.47;0.70;;;;;;;;;;5027784;28;20022;-63
2021/08/28 08:31:04;;;;;;;0.90;0.60;;;;;;;;;;5027640;28;20032;-63
2021/08/28 08:33:31;;;;;;;1.37;0.70;;;;;;;;;;5027498;28;20480;-63
2021/08/28 08:35:58;;;;;;;5.70;1.10;;;;;;;;;;5047319;28;20021;-63
2021/08/28 08:38:24;;;;;;;2.87;0.80;;;;;;;;;;5050319;28;20044;-62
2021/08/28 08:40:51;;;;;;;3.33;0.60;;;;;;;;;;5032390;28;20030;-63
2021/08/28 08:43:18;;;;;;;1.43;0.70;;;;;;;;;;5032401;28;20052;-62
2021/08/28 08:45:46;;;;;;;2.13;0.93;;;;;;;;;;5031898;28;20036;-62
2021/08/28 08:48:13;;;;;;;5.70;1.10;;;;;;;;;;5027520;28;20094;-64
2021/08/28 08:50:40;;;;;;;10.43;0.90;;;;;;;;;;5027574;28;20376;-62
2021/08/28 08:53:08;;;;;;;2.53;0.83;;;;;;;;;;5027213;28;20060;-63
2021/08/28 08:55:35;;;;;;;4.87;0.93;;;;;;;;;;5028372;28;20123;-63
2021/08/28 08:58:02;;;;;;;6.87;0.90;;;;;;;;;;5031006;28;20428;-62
2021/08/28 09:00:29;;;;;;;2.67;0.83;;;;;;;;;;5032022;28;20036;-63
2021/08/28 09:02:55;;;;;;;1.63;0.60;;;;;;;;;;5031693;28;20030;-62
2021/08/28 09:05:22;;;;;;;0.80;0.60;;;;;;;;;;5041500;28;20159;-62
2021/08/28 09:07:49;;;;;;;4.57;1.00;;;;;;;;;;5048635;28;20396;-62
2021/08/28 09:10:17;;;;;;;0.87;0.60;;;;;;;;;;5047004;28;20117;-62
2021/08/28 09:12:44;;;;;;;1.13;0.70;;;;;;;;;;5027040;28;20036;-63
2021/08/28 09:15:12;;;;;;;3.70;1.00;;;;;;;;;;5026786;28;20035;-63
2021/08/28 09:17:40;;;;;;;5.00;0.87;;;;;;;;;;5027179;28;20017;-62
2021/08/28 09:20:23;;;;;;;2.83;0.80;;;;;;;;;;5029714;28;20021;-62
2021/08/28 09:22:50;;;;;;;4.83;1.00;;;;;;;;;;5031735;28;20029;-62
2021/08/28 09:25:24;;;;;;;2.17;1.00;;;;;;;;;;5040084;28;20025;-62
2021/08/28 09:27:51;;;;;;;4.13;0.87;;;;;;;;;;5035268;28;20367;-62
2021/08/28 09:30:18;;;;;;;4.40;1.00;;;;;;;;;;5036258;28;20368;-62
2021/08/28 09:32:55;;;;;;;2.13;0.70;;;;;;;;;;5034684;28;20032;-62
2021/08/28 09:35:23;;;;;;;1.13;0.70;;;;;;;;;;5050751;28;20021;-63
2021/08/28 09:38:09;;;;;;;5.90;0.90;;;;;;;;;;5050858;28;20496;-62
2021/08/28 09:40:39;;;;;;;4.47;0.85;;;;;;;;;;5050783;28;20782;-63
2021/08/28 09:43:07;;;;;;;3.70;0.90;;;;;;;;;;5041863;28;20025;-62
2021/08/28 09:45:37;;;;;;;3.10;1.27;;;;;;;;;;5055633;28;20494;-62
2021/08/28 09:48:06;;;;;;;1.97;1.03;;;;;;;;;;5055131;28;20503;-62
2021/08/28 09:50:38;;;;;;;4.13;1.27;;;;;;;;;;5055598;28;20021;-62
2021/08/28 09:53:07;;;;;;;1.57;0.90;;;;;;;;;;5050870;28;20036;-62
2021/08/28 09:55:35;;;;;;;4.73;0.90;;;;;;;;;;5031159;28;20613;-62
2021/08/28 09:58:02;;;;;;;3.10;0.80;;;;;;;;;;5037408;28;20025;-62
2021/08/28 10:00:30;;;;;;;3.20;0.73;;;;;;;;;;5050265;28;20021;-62
2021/08/28 10:02:57;;;;;;;3.30;0.63;;;;;;;;;;5047449;28;21682;-62
2021/08/28 10:05:25;;;;;;;1.73;0.70;;;;;;;;;;5022022;28;20029;-62
2021/08/28 10:07:53;;;;;;;1.33;0.80;;;;;;;;;;5048992;28;20065;-62
2021/08/28 10:10:19;;;;;;;1.53;0.70;;;;;;;;;;5055205;28;20100;-62
2021/08/28 10:12:46;;;;;;;3.77;1.00;;;;;;;;;;5041583;28;20040;-63
2021/08/28 10:15:15;;;;;;;1.40;0.90;;;;;;;;;;5055137;28;20079;-62
2021/08/28 10:17:42;;;;;;;1.33;0.87;;;;;;;;;;5051497;28;20025;-63
2021/08/28 10:20:09;;;;;;;1.97;0.80;;;;;;;;;;5050142;28;20028;-62
2021/08/28 10:22:37;;;;;;;10.37;1.00;;;;;;;;;;5049796;28;20375;-62
2021/08/28 10:25:07;;;;;;;2.93;0.70;;;;;;;;;;5030509;28;20101;-63
2021/08/28 10:27:34;;;;;;;3.80;0.63;;;;;;;;;;5032275;28;20116;-62
2021/08/28 10:30:00;;;;;;;6.97;1.20;;;;;;;;;;5034152;28;20037;-63
2021/08/28 10:32:27;;;;;;;0.73;0.40;;;;;;;;;;5034913;28;20037;-62
2021/08/28 10:34:54;;;;;;;2.03;0.70;;;;;;;;;;5034256;28;20037;-62
2021/08/28 10:37:21;;;;;;;4.90;1.00;;;;;;;;;;5034548;28;20554;-62
2021/08/28 10:39:48;;;;;;;2.30;0.73;;;;;;;;;;5032150;28;20148;-62
2021/08/28 10:42:16;;;;;;;5.50;1.00;;;;;;;;;;5029726;28;20431;-63
2021/08/28 10:44:43;;;;;;;1.33;0.73;;;;;;;;;;5044260;28;20033;-63
2021/08/28 10:47:14;;;;;;;2.03;0.90;;;;;;;;;;5029653;28;20492;-62
2021/08/28 10:49:51;;;;;;;6.07;1.27;;;;;;;;;;5031189;28;20081;-62
2021/08/28 10:52:22;;;;;;;5.70;3.00;;;;;;;;;;5034462;28;20048;-62
2021/08/28 10:54:59;;;;;;;5.20;1.83;;;;;;;;;;5045307;28;20516;-62
2021/08/28 10:57:28;;;;;;;7.17;1.70;;;;;;;;;;5034964;28;20375;-62
2021/08/28 11:00:00;;;;;;;3.30;1.53;;;;;;;;;;5037194;28;20025;-62
2021/08/28 11:02:46;;;;;;;6.83;1.60;;;;;;;;;;5035703;28;20036;-62
2021/08/28 11:05:19;;;;;;;5.23;1.80;;;;;;;;;;5028710;28;20481;-62
2021/08/28 11:07:47;;;;;;;5.90;1.37;;;;;;;;;;5042443;28;20106;-63
2021/08/28 11:10:15;;;;;;;1.47;0.87;;;;;;;;;;5049267;28;20497;-62
2021/08/28 11:12:55;;;;;;;3.70;1.40;;;;;;;;;;5038547;28;20025;-62
2021/08/28 11:15:28;;;;;;;6.17;1.60;;;;;;;;;;5014174;28;20044;-62
2021/08/28 11:17:55;;;;;;;3.87;1.53;;;;;;;;;;5043142;28;20014;-62
2021/08/28 11:20:23;;;;;;;2.80;1.13;;;;;;;;;;5053496;28;20048;-62
2021/08/28 11:22:50;;;;;;;7.90;2.17;;;;;;;;;;5053351;28;20092;-63
2021/08/28 11:25:20;;;;;;;3.40;1.60;;;;;;;;;;5030983;28;20510;-62
2021/08/28 11:27:47;;;;;;;1.90;1.00;;;;;;;;;;5028783;28;20065;-63
2021/08/28 11:30:15;;;;;;;4.83;1.47;;;;;;;;;;5028997;28;20037;-63
2021/08/28 11:33:00;;;;;;;4.53;1.07;;;;;;;;;;5028491;28;20018;-62
2021/08/28 11:35:32;;;;;;;2.10;1.23;;;;;;;;;;5051039;28;20029;-62
2021/08/28 11:38:06;;;;;;;5.37;1.03;;;;;;;;;;5053385;28;20028;-62
2021/08/28 11:40:35;;;;;;;5.70;1.40;;;;;;;;;;5053282;28;20032;-62
2021/08/28 11:43:03;;;;;;;1.23;0.70;;;;;;;;;;5044456;28;20100;-62
2021/08/28 11:45:34;;;;;;;1.80;0.60;;;;;;;;;;5033764;28;20104;-62
2021/08/28 11:48:06;;;;;;;2.10;0.80;;;;;;;;;;5029117;28;20064;-62
2021/08/28 11:50:33;;;;;;;7.57;1.20;;;;;;;;;;5047947;28;20079;-63
2021/08/28 11:53:00;;;;;;;2.17;0.93;;;;;;;;;;5047658;28;20021;-62
2021/08/28 11:55:27;;;;;;;4.20;1.97;;;;;;;;;;5028384;28;20400;-63
2021/08/28 11:58:01;;;;;;;5.23;1.70;;;;;;;;;;5031134;28;20036;-63
2021/08/28 12:00:31;;;;;;;5.03;1.70;;;;;;;;;;5033332;28;20064;-62
2021/08/28 12:03:02;;;;;;;4.97;1.13;;;;;;;;;;5032452;28;20384;-62
2021/08/28 12:05:31;;;;;;;22.77;2.67;;;;;;;;;;5045375;28;20075;-61
2021/08/28 12:07:58;;;;;;;3.83;1.00;;;;;;;;;;5048163;28;20033;-63
2021/08/28 12:10:25;;;;;;;4.37;1.20;;;;;;;;;;5009113;28;20117;-62
2021/08/28 12:12:59;;;;;;;2.70;1.10;;;;;;;;;;5022995;28;20088;-62
2021/08/28 12:15:26;;;;;;;5.87;1.33;;;;;;;;;;5028976;28;20049;-62
2021/08/28 12:17:54;;;;;;;4.67;1.23;;;;;;;;;;5027538;28;20127;-62
2021/08/28 12:20:25;;;;;;;2.57;1.20;;;;;;;;;;5032010;28;20029;-62
2021/08/28 12:22:52;;;;;;;4.20;1.10;;;;;;;;;;5014860;28;20419;-62
2021/08/28 12:25:19;;;;;;;6.87;1.60;;;;;;;;;;5032665;28;20018;-62
2021/08/28 12:27:46;;;;;;;1.80;0.90;;;;;;;;;;5032192;28;20033;-62
2021/08/28 12:30:13;;;;;;;3.03;1.50;;;;;;;;;;5032345;28;20052;-62
2021/08/28 12:32:40;;;;;;;3.03;1.10;;;;;;;;;;5029085;28;20453;-63
2021/08/28 12:35:08;;;;;;;1.97;1.00;;;;;;;;;;5026631;28;20049;-62
2021/08/28 12:37:34;;;;;;;3.33;1.23;;;;;;;;;;5027607;28;20029;-63
2021/08/28 12:40:03;;;;;;;1.93;1.03;;;;;;;;;;5027382;28;20061;-63
2021/08/28 12:42:31;;;;;;;3.70;1.10;;;;;;;;;;5029727;28;20049;-62
2021/08/28 12:44:59;;;;;;;3.03;0.90;;;;;;;;;;5032220;28;20021;-62
2021/08/28 12:47:29;;;;;;;5.30;1.00;;;;;;;;;;5032206;28;20034;-62
2021/08/28 12:49:57;;;;;;;2.67;1.07;;;;;;;;;;5031575;28;20469;-62
2021/08/28 12:52:37;;;;;;;3.17;0.90;;;;;;;;;;5031864;28;20053;-62
2021/08/28 12:55:03;;;;;;;2.63;1.07;;;;;;;;;;5028892;28;20026;-62
2021/08/28 12:57:31;;;;;;;3.27;1.20;;;;;;;;;;5027459;28;20029;-62
2021/08/28 12:59:59;;;;;;;4.83;1.40;;;;;;;;;;5037703;28;20025;-62
2021/08/28 13:02:27;;;;;;;6.13;1.47;;;;;;;;;;5036435;28;20097;-62
2021/08/28 13:04:54;;;;;;;4.27;1.40;;;;;;;;;;5024774;28;20025;-62
2021/08/28 13:07:23;;;;;;;8.17;1.87;;;;;;;;;;5040946;28;20068;-62
2021/08/28 13:09:52;;;;;;;3.50;1.40;;;;;;;;;;5051973;28;20032;-62
2021/08/28 13:12:20;;;;;;;3.37;1.70;;;;;;;;;;5041620;28;20554;-63
2021/08/28 13:14:52;;;;;;;2.83;1.30;;;;;;;;;;5032261;28;20063;-62
2021/08/28 13:17:26;;;;;;;5.80;1.37;;;;;;;;;;5029531;28;20029;-63
2021/08/28 13:20:10;;;;;;;5.27;1.50;;;;;;;;;;5027245;28;20384;-63
2021/08/28 13:22:42;;;;;;;4.50;1.13;;;;;;;;;;5026604;28;20143;-63
2021/08/28 13:25:09;;;;;;;2.87;1.30;;;;;;;;;;5027166;28;20048;-62
2021/08/28 13:27:43;;;;;;;2.53;1.03;;;;;;;;;;5029373;28;20034;-63
2021/08/28 13:30:19;;;;;;;3.20;1.00;;;;;;;;;;5031621;28;20458;-62
2021/08/28 13:33:12;;;;;;;2.37;1.40;;;;;;;;;;5031866;28;20028;-62
2021/08/28 13:35:40;;;;;;;5.77;1.80;;;;;;;;;;5029260;28;20601;-63
2021/08/28 13:38:09;;;;;;;3.27;1.60;;;;;;;;;;5031660;28;20072;-63
2021/08/28 13:40:36;;;;;;;3.87;1.63;;;;;;;;;;5027372;28;20119;-62
2021/08/28 13:43:03;;;;;;;3.90;1.80;;;;;;;;;;5033634;28;20036;-61
2021/08/28 13:45:30;;;;;;;4.40;1.80;;;;;;;;;;5046847;28;20100;-62
2021/08/28 13:47:56;;;;;;;4.40;1.77;;;;;;;;;;5024447;28;20030;-62
2021/08/28 13:50:23;;;;;;;5.07;2.30;;;;;;;;;;5010062;28;20033;-62
2021/08/28 13:52:50;;;;;;;5.93;2.90;;;;;;;;;;5039418;28;20021;-62
2021/08/28 13:55:18;;;;;;;6.50;3.27;;;;;;;;;;5042137;28;20045;-63
2021/08/28 13:57:46;;;;;;;6.43;3.60;;;;;;;;;;5042431;28;20029;-62
2021/08/28 14:00:13;;;;;;;11.73;3.37;;;;;;;;;;5051015;28;20064;-62
2021/08/28 14:02:41;;;;;;;5.87;2.77;;;;;;;;;;5035335;28;20036;-62
2021/08/28 14:05:08;;;;;;;8.03;3.53;;;;;;;;;;5016525;28;20021;-62
2021/08/28 14:07:35;;;;;;;6.37;3.37;;;;;;;;;;5037427;28;20472;-62
2021/08/28 14:10:02;;;;;;;7.10;2.97;;;;;;;;;;5046483;28;20028;-62
2021/08/28 14:12:29;;;;;;;9.00;3.30;;;;;;;;;;5048790;28;20025;-61
2021/08/28 14:14:56;;;;;;;9.87;3.63;;;;;;;;;;5054058;28;20539;-62
2021/08/28 14:17:24;;;;;;;9.23;3.70;;;;;;;;;;5055013;28;20484;-63
2021/08/28 14:19:52;;;;;;;7.93;3.67;;;;;;;;;;5050282;28;20021;-66
2021/08/28 14:22:18;;;;;;;5.60;3.27;;;;;;;;;;5034975;28;20037;-62
2021/08/28 14:24:45;;;;;;;15.67;4.00;;;;;;;;;;5046220;28;20039;-63
2021/08/28 14:27:12;;;;;;;9.27;4.60;;;;;;;;;;5049983;28;20029;-63
2021/08/28 14:29:39;;;;;;;7.70;4.60;;;;;;;;;;5050014;28;20025;-63
2021/08/28 14:32:06;;;;;;;11.00;4.13;;;;;;;;;;5049427;28;20028;-64
2021/08/28 14:34:33;;;;;;;7.37;3.83;;;;;;;;;;5050944;28;20021;-62
2021/08/28 14:37:01;;;;;;;5.97;3.30;;;;;;;;;;5040405;28;20542;-63
2021/08/28 14:39:27;;;;;;;6.03;3.10;;;;;;;;;;5038602;28;20090;-62
2021/08/28 14:41:54;;;;;;;7.77;3.47;;;;;;;;;;5054571;28;20032;-64
2021/08/28 14:44:21;;;;;;;7.37;3.70;;;;;;;;;;5054645;28;20028;-63